createdAt,value
2023-02-09T00:01:50.579Z,5.22
2023-02-09T00:04:18.753Z,5.32
2023-02-09T00:06:46.868Z,5.28
2023-02-09T00:09:16.844Z,4.50
2023-02-09T00:12:02.588Z,5.82
2023-02-09T00:14:32.794Z,5.03
2023-02-09T00:17:02.595Z,4.88
2023-02-09T00:19:33.187Z,5.18
2023-02-09T00:22:01.553Z,5.00
2023-02-09T00:24:31.053Z,4.90
2023-02-09T00:26:59.303Z,4.57
2023-02-09T00:29:27.640Z,4.65
2023-02-09T00:31:55.881Z,4.82
2023-02-09T00:34:24.003Z,4.95
2023-02-09T00:36:52.165Z,4.75
2023-02-09T00:39:20.252Z,4.55
2023-02-09T00:42:07.388Z,4.90
2023-02-09T00:44:37.231Z,4.15
2023-02-09T00:47:06.673Z,4.22
2023-02-09T00:49:36.119Z,3.38
2023-02-09T00:52:04.314Z,4.70
2023-02-09T00:54:32.460Z,4.75
2023-02-09T00:57:05.362Z,4.00
2023-02-09T00:59:36.011Z,3.50
2023-02-09T01:02:04.912Z,4.03
2023-02-09T01:04:33.593Z,3.60
2023-02-09T01:07:01.704Z,4.00
2023-02-09T01:09:30.029Z,3.65
2023-02-09T01:11:58.107Z,4.38
2023-02-09T01:14:27.860Z,4.57
2023-02-09T01:16:56.018Z,4.35
2023-02-09T01:19:27.245Z,3.38
2023-02-09T01:21:56.178Z,4.05
2023-02-09T01:24:24.512Z,4.20
2023-02-09T01:26:52.741Z,4.30
2023-02-09T01:29:21.459Z,4.10
2023-02-09T01:31:50.980Z,3.97
2023-02-09T01:34:19.954Z,3.90
2023-02-09T01:36:50.894Z,3.60
2023-02-09T01:39:19.097Z,4.28
2023-02-09T01:41:48.293Z,5.35
2023-02-09T01:44:54.330Z,4.70
2023-02-09T01:47:24.260Z,4.35
2023-02-09T01:49:53.353Z,4.90
2023-02-09T01:52:27.161Z,4.05
2023-02-09T01:54:59.864Z,4.43
2023-02-09T01:57:31.714Z,4.80
2023-02-09T02:00:06.740Z,4.13
2023-02-09T02:02:46.342Z,4.07
2023-02-09T02:05:15.881Z,2.80
2023-02-09T02:07:50.354Z,3.00
2023-02-09T02:10:18.671Z,1.80
2023-02-09T02:12:47.174Z,2.65
2023-02-09T02:15:16.486Z,3.10
2023-02-09T02:18:06.088Z,1.75
2023-02-09T02:21:07.174Z,2.25
2023-02-09T02:23:48.689Z,1.60
2023-02-09T02:26:37.322Z,2.45
2023-02-09T02:29:25.963Z,2.30
2023-02-09T02:32:10.829Z,2.28
2023-02-09T02:34:45.455Z,2.38
2023-02-09T02:37:23.144Z,2.30
2023-02-09T02:40:09.134Z,2.22
2023-02-09T02:42:50.195Z,1.98
2023-02-09T02:45:30.055Z,2.15
2023-02-09T02:48:06.736Z,2.03
2023-02-09T02:50:38.229Z,2.30
2023-02-09T02:53:10.659Z,1.63
2023-02-09T02:55:40.470Z,2.33
2023-02-09T02:58:12.950Z,1.55
2023-02-09T03:00:46.438Z,2.00
2023-02-09T03:03:19.839Z,1.98
2023-02-09T03:05:49.242Z,2.47
2023-02-09T03:08:17.626Z,1.88
2023-02-09T03:10:46.284Z,2.03
2023-02-09T03:13:33.422Z,2.03
2023-02-09T03:16:15.023Z,1.70
2023-02-09T03:18:59.368Z,1.83
2023-02-09T03:24:05.866Z,1.13
2023-02-09T03:26:41.602Z,1.45
2023-02-09T03:29:11.821Z,1.63
2023-02-09T03:31:41.282Z,1.35
2023-02-09T03:34:11.143Z,1.77
2023-02-09T03:36:41.567Z,1.75
2023-02-09T03:39:09.822Z,1.88
2023-02-09T03:41:38.201Z,1.45
2023-02-09T03:44:23.884Z,1.48
2023-02-09T03:46:52.213Z,1.42
2023-02-09T03:49:21.871Z,1.25
2023-02-09T03:51:50.457Z,1.10
2023-02-09T03:54:18.830Z,1.13
2023-02-09T03:56:47.099Z,1.52
2023-02-09T03:59:15.282Z,1.42
2023-02-09T04:01:43.548Z,1.77
2023-02-09T04:04:11.728Z,1.27
2023-02-09T04:06:41.330Z,1.65
2023-02-09T04:09:09.611Z,1.48
2023-02-09T04:11:38.725Z,1.05
2023-02-09T04:14:10.561Z,1.05
2023-02-09T04:16:40.141Z,0.80
2023-02-09T04:19:09.809Z,0.95
2023-02-09T04:21:38.471Z,1.17
2023-02-09T04:24:08.889Z,1.08
2023-02-09T04:26:37.257Z,0.85
2023-02-09T04:29:05.638Z,1.13
2023-02-09T04:31:34.919Z,1.42
2023-02-09T04:34:03.214Z,1.52
2023-02-09T04:36:31.909Z,0.90
2023-02-09T04:39:00.195Z,1.02
2023-02-09T04:41:29.783Z,1.50
2023-02-09T04:43:58.065Z,1.00
2023-02-09T04:46:26.552Z,0.73
2023-02-09T04:48:54.813Z,1.48
2023-02-09T04:51:23.090Z,1.20
2023-02-09T04:53:51.373Z,1.77
2023-02-09T04:56:19.641Z,1.00
2023-02-09T04:59:06.666Z,1.52
2023-02-09T05:01:35.007Z,1.02
2023-02-09T05:04:03.273Z,1.33
2023-02-09T05:06:31.591Z,1.33
2023-02-09T05:08:59.770Z,1.55
2023-02-09T05:11:28.154Z,1.25
2023-02-09T05:13:58.319Z,1.50
2023-02-09T05:16:26.667Z,1.10
2023-02-09T05:18:55.528Z,1.65
2023-02-09T05:21:24.008Z,0.85
2023-02-09T05:23:52.182Z,0.90
2023-02-09T05:26:20.556Z,1.05
2023-02-09T05:28:48.933Z,1.17
2023-02-09T05:31:19.241Z,1.20
2023-02-09T05:33:47.747Z,1.10
2023-02-09T05:36:16.112Z,1.08
2023-02-09T05:38:44.403Z,0.73
2023-02-09T05:41:36.325Z,1.40
2023-02-09T05:44:05.203Z,1.35
2023-02-09T05:46:36.252Z,1.33
2023-02-09T05:49:04.532Z,1.50
2023-02-09T05:51:32.902Z,1.45
2023-02-09T05:54:01.288Z,1.13
2023-02-09T05:56:29.450Z,1.83
2023-02-09T05:58:57.930Z,1.45
2023-02-09T06:01:26.110Z,1.67
2023-02-09T06:03:55.822Z,1.63
2023-02-09T06:06:24.196Z,2.63
2023-02-09T06:08:52.581Z,1.50
2023-02-09T06:11:20.950Z,1.35
2023-02-09T06:13:49.432Z,1.73
2023-02-09T06:16:17.612Z,1.33
2023-02-09T06:18:45.975Z,1.65
2023-02-09T06:21:15.376Z,1.58
2023-02-09T06:23:43.768Z,1.48
2023-02-09T06:26:13.874Z,1.63
2023-02-09T06:28:42.668Z,1.30
2023-02-09T06:31:11.336Z,2.30
2023-02-09T06:33:40.647Z,1.70
2023-02-09T06:36:10.084Z,2.45
2023-02-09T06:38:39.969Z,1.80
2023-02-09T06:41:08.661Z,1.63
2023-02-09T06:43:37.031Z,1.52
2023-02-09T06:46:09.815Z,1.83
2023-02-09T06:48:40.209Z,1.90
2023-02-09T06:51:10.150Z,1.42
2023-02-09T06:53:40.898Z,1.40
2023-02-09T06:56:09.679Z,1.65
2023-02-09T06:58:38.459Z,1.40
2023-02-09T07:01:08.583Z,2.15
2023-02-09T07:03:37.170Z,2.72
2023-02-09T07:06:07.520Z,1.98
2023-02-09T07:08:36.273Z,2.40
2023-02-09T07:11:07.730Z,1.95
2023-02-09T07:13:36.333Z,2.55
2023-02-09T07:16:06.782Z,2.50
2023-02-09T07:18:35.721Z,2.45
2023-02-09T07:21:06.225Z,2.55
2023-02-09T07:23:34.831Z,3.10
2023-02-09T07:26:05.769Z,3.10
2023-02-09T07:28:34.591Z,3.28
2023-02-09T07:31:05.643Z,3.72
2023-02-09T07:33:34.700Z,3.22
2023-02-09T07:36:05.805Z,3.63
2023-02-09T07:38:34.924Z,3.55
2023-02-09T07:41:05.899Z,2.95
2023-02-09T07:43:34.947Z,3.40
2023-02-09T07:46:03.805Z,2.97
2023-02-09T07:48:32.291Z,3.13
2023-02-09T07:51:00.409Z,3.05
2023-02-09T07:53:29.519Z,3.42
2023-02-09T07:55:57.894Z,2.67
2023-02-09T07:58:27.342Z,2.78
2023-02-09T08:00:55.414Z,3.10
2023-02-09T08:03:25.618Z,3.70
2023-02-09T08:05:59.804Z,2.20
2023-02-09T08:08:28.003Z,2.60
2023-02-09T08:10:59.126Z,2.53
2023-02-09T08:13:34.891Z,2.50
2023-02-09T08:16:05.823Z,2.47
2023-02-09T08:18:38.366Z,2.28
2023-02-09T08:21:09.184Z,2.45
2023-02-09T08:23:40.295Z,2.50
2023-02-09T08:26:12.464Z,2.67
2023-02-09T08:28:45.545Z,2.28
2023-02-09T08:31:14.650Z,1.80
2023-02-09T08:33:43.556Z,2.35
2023-02-09T08:36:12.692Z,2.35
2023-02-09T08:38:41.324Z,2.38
2023-02-09T08:41:11.695Z,2.38
2023-02-09T08:43:41.146Z,2.38
2023-02-09T08:46:11.336Z,2.28
2023-02-09T08:48:41.496Z,2.10
2023-02-09T08:51:11.472Z,2.38
2023-02-09T08:53:39.689Z,2.92
2023-02-09T08:56:08.820Z,3.30
2023-02-09T08:58:37.020Z,2.58
2023-02-09T09:01:06.618Z,2.92
2023-02-09T09:03:34.771Z,3.10
2023-02-09T09:06:04.731Z,2.97
2023-02-09T09:08:34.331Z,2.75
2023-02-09T09:11:02.564Z,2.65
2023-02-09T09:13:31.044Z,2.90
2023-02-09T09:15:59.233Z,3.63
2023-02-09T09:18:28.635Z,2.80
2023-02-09T09:20:57.473Z,2.95
2023-02-09T09:23:25.741Z,2.40
2023-02-09T09:25:53.913Z,2.83
2023-02-09T09:28:22.391Z,2.53
2023-02-09T09:30:50.749Z,1.80
2023-02-09T09:33:18.918Z,2.95
2023-02-09T09:35:48.626Z,2.80
2023-02-09T09:38:16.820Z,2.65
2023-02-09T09:40:46.703Z,2.90
2023-02-09T09:43:24.083Z,2.60
2023-02-09T09:45:52.554Z,2.00
2023-02-09T09:48:24.833Z,1.98
2023-02-09T09:50:57.485Z,2.08
2023-02-09T09:53:33.065Z,1.13
2023-02-09T09:56:05.564Z,1.70
2023-02-09T09:58:34.477Z,1.63
2023-02-09T10:01:02.783Z,1.27
2023-02-09T10:03:30.984Z,1.90
2023-02-09T10:06:04.239Z,1.70
2023-02-09T10:08:36.292Z,1.58
2023-02-09T10:11:06.768Z,1.60
2023-02-09T10:13:38.037Z,0.90
2023-02-09T10:16:17.311Z,1.25
2023-02-09T10:18:46.220Z,1.13
2023-02-09T10:21:16.709Z,1.10
2023-02-09T10:23:46.796Z,1.30
2023-02-09T10:26:24.113Z,1.17
2023-02-09T10:28:54.236Z,0.93
2023-02-09T10:31:26.084Z,0.80
2023-02-09T10:33:59.082Z,1.35
2023-02-09T10:36:31.803Z,0.88
2023-02-09T10:39:16.686Z,1.08
2023-02-09T10:41:48.156Z,1.00
2023-02-09T10:44:21.735Z,1.27
2023-02-09T10:46:50.449Z,1.40
2023-02-09T10:49:39.880Z,0.65
2023-02-09T10:52:16.574Z,1.00
2023-02-09T10:54:48.853Z,1.20
2023-02-09T10:57:26.313Z,1.00
2023-02-09T10:59:56.891Z,0.70
2023-02-09T11:02:39.062Z,1.00
2023-02-09T11:05:27.569Z,1.23
2023-02-09T11:08:02.215Z,1.05
2023-02-09T11:10:33.287Z,0.90
2023-02-09T11:13:01.960Z,0.88
2023-02-09T11:15:45.524Z,0.98
2023-02-09T11:18:18.097Z,1.15
2023-02-09T11:20:52.836Z,1.17
2023-02-09T11:23:37.191Z,1.27
2023-02-09T11:26:11.563Z,1.27
2023-02-09T11:28:53.526Z,1.05
2023-02-09T11:31:44.440Z,1.23
2023-02-09T11:34:26.431Z,1.52
2023-02-09T11:37:03.941Z,1.25
2023-02-09T11:39:44.768Z,0.90
2023-02-09T11:42:34.198Z,0.50
2023-02-09T11:45:08.991Z,0.95
2023-02-09T11:47:49.916Z,0.40
2023-02-09T11:50:26.463Z,0.47
2023-02-09T11:52:58.064Z,0.65
2023-02-09T11:55:32.727Z,1.10
2023-02-09T11:58:13.658Z,0.70
2023-02-09T12:00:56.227Z,0.77
2023-02-09T12:03:28.070Z,2.20
2023-02-09T12:05:57.398Z,0.55
2023-02-09T12:08:35.632Z,0.47
2023-02-09T12:11:17.880Z,0.70
2023-02-09T12:14:00.762Z,0.73
2023-02-09T12:16:34.236Z,0.95
2023-02-09T12:19:04.508Z,0.40
2023-02-09T12:21:35.205Z,0.70
2023-02-09T12:24:07.449Z,0.90
2023-02-09T12:26:42.608Z,0.47
2023-02-09T12:29:36.220Z,0.40
2023-02-09T12:32:27.270Z,0.73
2023-02-09T12:34:56.766Z,0.65
2023-02-09T12:37:28.235Z,0.60
2023-02-09T12:40:19.895Z,0.35
2023-02-09T12:43:12.954Z,0.60
2023-02-09T12:45:43.666Z,0.65
2023-02-09T12:48:17.576Z,1.48
2023-02-09T12:50:50.113Z,0.88
2023-02-09T12:53:56.069Z,0.75
2023-02-09T12:56:29.595Z,0.73
2023-02-09T12:59:22.952Z,0.52
2023-02-09T13:02:18.110Z,0.73
2023-02-09T13:04:59.619Z,0.50
2023-02-09T13:07:41.198Z,0.47
2023-02-09T13:10:21.953Z,1.15
2023-02-09T13:12:55.520Z,0.65
2023-02-09T13:15:30.357Z,0.17
2023-02-09T13:18:08.013Z,0.90
2023-02-09T13:21:02.118Z,0.63
2023-02-09T13:23:35.441Z,0.77
2023-02-09T13:26:17.131Z,0.45
2023-02-09T13:28:45.338Z,0.57
2023-02-09T13:31:35.516Z,0.28
2023-02-09T13:34:17.014Z,0.40
2023-02-09T13:36:52.297Z,0.73
2023-02-09T13:39:25.312Z,0.50
2023-02-09T13:41:55.516Z,0.65
2023-02-09T13:44:26.301Z,0.25
2023-02-09T13:46:58.571Z,0.60
2023-02-09T13:49:28.370Z,0.45
2023-02-09T13:52:16.343Z,0.65
2023-02-09T13:54:44.971Z,0.17
2023-02-09T13:57:29.512Z,0.68
2023-02-09T14:00:06.533Z,0.38
2023-02-09T14:02:36.949Z,0.50
2023-02-09T14:05:08.593Z,0.50
2023-02-09T14:07:39.212Z,0.50
2023-02-09T14:10:14.503Z,0.35
2023-02-09T14:12:52.381Z,0.20
2023-02-09T14:15:41.516Z,0.38
2023-02-09T14:18:33.835Z,0.50
2023-02-09T14:21:14.908Z,0.60
2023-02-09T14:23:45.012Z,0.30
2023-02-09T14:26:23.258Z,0.52
2023-02-09T14:28:54.206Z,0.57
2023-02-09T14:31:25.038Z,0.28
2023-02-09T14:33:57.001Z,0.40
2023-02-09T14:36:30.482Z,0.75
2023-02-09T14:39:10.986Z,0.35
2023-02-09T14:41:39.277Z,0.43
2023-02-09T14:44:21.022Z,0.60
2023-02-09T14:46:51.952Z,0.45
2023-02-09T14:49:22.392Z,0.50
2023-02-09T14:51:52.768Z,0.22
2023-02-09T14:54:26.832Z,0.40
2023-02-09T14:56:58.675Z,0.50
2023-02-09T14:59:26.987Z,0.70
2023-02-09T15:01:56.082Z,0.13
2023-02-09T15:04:25.783Z,0.30
2023-02-09T15:07:03.119Z,0.20
2023-02-09T15:09:36.084Z,0.40
2023-02-09T15:12:05.936Z,0.20
2023-02-09T15:14:38.923Z,0.13
2023-02-09T15:17:15.311Z,1.03
2023-02-09T15:19:45.352Z,0.35
2023-02-09T15:22:16.248Z,0.40
2023-02-09T15:24:46.578Z,0.40
2023-02-09T15:27:26.512Z,0.47
2023-02-09T15:29:58.947Z,0.68
2023-02-09T15:32:28.566Z,0.40
2023-02-09T15:34:58.022Z,0.45
2023-02-09T15:37:33.477Z,0.22
2023-02-09T15:40:17.886Z,0.38
2023-02-09T15:43:03.745Z,0.63
2023-02-09T15:45:49.494Z,1.33
2023-02-09T15:48:17.700Z,0.80
2023-02-09T15:50:50.754Z,0.90
2023-02-09T15:53:21.332Z,0.70
2023-02-09T15:55:49.789Z,1.17
2023-02-09T15:58:20.615Z,0.95
2023-02-09T16:00:48.999Z,0.93
2023-02-09T16:03:19.893Z,1.25
2023-02-09T16:05:52.735Z,0.57
2023-02-09T16:08:23.825Z,1.13
2023-02-09T16:10:52.693Z,0.95
2023-02-09T16:13:21.537Z,0.80
2023-02-09T16:15:49.793Z,1.10
2023-02-09T16:18:18.054Z,1.20
2023-02-09T16:20:51.723Z,1.20
2023-02-09T16:23:26.119Z,1.42
2023-02-09T16:25:55.089Z,1.80
2023-02-09T16:28:23.367Z,1.10
2023-02-09T16:30:53.915Z,1.30
2023-02-09T16:33:23.567Z,1.25
2023-02-09T16:35:56.004Z,1.45
2023-02-09T16:38:25.788Z,1.50
2023-02-09T16:40:54.757Z,1.95
2023-02-09T16:43:24.185Z,1.33
2023-02-09T16:46:02.849Z,1.42
2023-02-09T16:48:34.658Z,1.75
2023-02-09T16:51:04.342Z,1.65
2023-02-09T16:53:36.416Z,1.33
2023-02-09T16:56:10.256Z,1.52
2023-02-09T16:58:39.635Z,1.13
2023-02-09T17:01:17.142Z,1.50
2023-02-09T17:03:48.082Z,2.05
2023-02-09T17:06:20.121Z,1.80
2023-02-09T17:08:48.990Z,1.58
2023-02-09T17:11:18.782Z,1.45
2023-02-09T17:13:47.352Z,1.52
2023-02-09T17:16:18.947Z,1.52
2023-02-09T17:18:49.849Z,1.33
2023-02-09T17:21:21.814Z,0.80
2023-02-09T17:23:50.421Z,0.95
2023-02-09T17:26:19.329Z,2.33
2023-02-09T17:28:47.854Z,1.17
2023-02-09T17:31:20.058Z,1.98
2023-02-09T17:33:51.174Z,1.40
2023-02-09T17:36:27.013Z,1.48
2023-02-09T17:38:57.796Z,1.20
2023-02-09T17:41:32.808Z,0.95
2023-02-09T17:44:23.809Z,0.75
2023-02-09T17:46:57.366Z,0.90
2023-02-09T17:49:25.577Z,1.45
2023-02-09T17:51:55.209Z,1.60
2023-02-09T17:54:23.359Z,1.17
2023-02-09T17:56:51.593Z,1.42
2023-02-09T17:59:21.327Z,1.27
2023-02-09T18:01:51.164Z,0.95
2023-02-09T18:04:21.252Z,0.90
2023-02-09T18:06:49.886Z,1.00
2023-02-09T18:09:19.347Z,0.65
2023-02-09T18:12:09.073Z,1.25
2023-02-09T18:14:37.251Z,1.20
2023-02-09T18:17:05.492Z,1.40
2023-02-09T18:19:34.020Z,0.70
2023-02-09T18:22:03.562Z,0.60
2023-02-09T18:24:35.351Z,0.80
2023-02-09T18:27:03.832Z,0.63
2023-02-09T18:29:32.190Z,1.52
2023-02-09T18:32:02.042Z,1.35
2023-02-09T18:34:31.168Z,1.05
2023-02-09T18:36:59.527Z,1.08
2023-02-09T18:39:27.622Z,0.70
2023-02-09T18:41:57.264Z,1.23
2023-02-09T18:44:29.402Z,1.58
2023-02-09T18:47:00.444Z,0.90
2023-02-09T18:49:29.195Z,1.13
2023-02-09T18:51:59.528Z,1.20
2023-02-09T18:54:29.254Z,1.30
2023-02-09T18:56:58.725Z,1.23
2023-02-09T18:59:30.052Z,1.50
2023-02-09T19:01:59.182Z,1.33
2023-02-09T19:04:29.130Z,1.80
2023-02-09T19:06:58.312Z,1.50
2023-02-09T19:09:26.500Z,2.75
2023-02-09T19:11:54.757Z,3.42
2023-02-09T19:14:41.721Z,2.25
2023-02-09T19:17:14.571Z,1.90
2023-02-09T19:19:43.510Z,3.97
2023-02-09T19:22:15.964Z,3.92
2023-02-09T19:24:44.598Z,3.15
2023-02-09T19:27:13.341Z,3.42
2023-02-09T19:29:42.944Z,1.92
2023-02-09T19:32:14.964Z,1.50
2023-02-09T19:34:45.451Z,1.65
2023-02-09T19:37:15.669Z,1.35
2023-02-09T19:39:52.542Z,1.30
2023-02-09T19:42:21.691Z,1.58
2023-02-09T19:44:51.167Z,1.20
2023-02-09T19:47:25.649Z,1.30
2023-02-09T19:49:54.310Z,0.70
2023-02-09T19:52:22.711Z,1.05
2023-02-09T19:54:51.443Z,1.50
2023-02-09T19:57:20.783Z,1.10
2023-02-09T19:59:49.340Z,1.23
2023-02-09T20:02:19.092Z,0.50
2023-02-09T20:04:47.269Z,0.88
2023-02-09T20:07:15.782Z,0.70
2023-02-09T20:09:43.992Z,1.02
2023-02-09T20:12:12.091Z,1.15
2023-02-09T20:14:40.291Z,1.00
2023-02-09T20:17:08.408Z,1.48
2023-02-09T20:19:38.117Z,1.10
2023-02-09T20:22:06.407Z,0.88
2023-02-09T20:24:36.041Z,1.05
2023-02-09T20:27:05.037Z,1.60
2023-02-09T20:29:33.070Z,1.92
2023-02-09T20:32:01.902Z,1.50
2023-02-09T20:34:30.158Z,1.23
2023-02-09T20:37:00.025Z,1.80
2023-02-09T20:39:28.374Z,1.10
2023-02-09T20:42:15.880Z,1.23
2023-02-09T20:45:02.003Z,1.48
2023-02-09T20:47:30.924Z,1.25
2023-02-09T20:50:00.286Z,1.60
2023-02-09T20:52:30.993Z,1.70
2023-02-09T20:54:59.181Z,1.15
2023-02-09T20:57:30.341Z,1.10
2023-02-09T20:59:59.033Z,0.85
2023-02-09T21:02:27.872Z,1.13
2023-02-09T21:04:56.312Z,1.05
2023-02-09T21:07:25.486Z,1.58
2023-02-09T21:09:56.017Z,1.00
2023-02-09T21:12:25.043Z,1.23
2023-02-09T21:14:53.824Z,1.35
2023-02-09T21:17:22.605Z,1.13
2023-02-09T21:19:50.761Z,1.48
2023-02-09T21:22:19.317Z,1.13
2023-02-09T21:24:47.514Z,1.20
2023-02-09T21:27:16.968Z,1.80
2023-02-09T21:29:45.073Z,1.00
2023-02-09T21:32:13.225Z,1.52
2023-02-09T21:34:41.386Z,1.23
2023-02-09T21:37:12.931Z,1.17
2023-02-09T21:39:41.373Z,1.20
2023-02-09T21:42:31.255Z,2.22
2023-02-09T21:45:01.089Z,2.13
2023-02-09T21:47:30.510Z,2.30
2023-02-09T21:49:59.166Z,2.65
2023-02-09T21:52:29.908Z,1.88
2023-02-09T21:54:58.345Z,1.60
2023-02-09T21:57:27.152Z,2.80
2023-02-09T21:59:55.440Z,2.47
2023-02-09T22:02:24.957Z,2.60
2023-02-09T22:04:53.213Z,2.10
2023-02-09T22:07:21.283Z,1.85
2023-02-09T22:09:49.486Z,2.05
2023-02-09T22:12:17.671Z,3.40
2023-02-09T22:14:45.867Z,2.60
2023-02-09T22:17:13.960Z,2.30
2023-02-09T22:19:43.461Z,1.80
2023-02-09T22:22:11.823Z,1.80
2023-02-09T22:24:40.057Z,1.52
2023-02-09T22:27:08.182Z,0.77
2023-02-09T22:29:36.348Z,1.02
2023-02-09T22:32:04.465Z,0.60
2023-02-09T22:34:32.635Z,0.50
2023-02-09T22:37:02.059Z,0.43
2023-02-09T22:39:30.307Z,0.40
2023-02-09T22:41:59.586Z,0.55
2023-02-09T22:44:30.158Z,0.65
2023-02-09T22:46:58.415Z,0.55
2023-02-09T22:49:26.535Z,0.10
2023-02-09T22:51:54.681Z,0.47
2023-02-09T22:54:24.084Z,0.45
2023-02-09T22:56:52.758Z,0.55
2023-02-09T22:59:20.926Z,1.05
2023-02-09T23:01:49.275Z,2.08
2023-02-09T23:04:17.488Z,1.10
2023-02-09T23:06:46.101Z,1.70
2023-02-09T23:09:15.742Z,1.77
2023-02-09T23:11:45.474Z,0.70
2023-02-09T23:14:14.076Z,1.45
2023-02-09T23:16:43.487Z,0.50
2023-02-09T23:19:14.392Z,1.05
2023-02-09T23:21:44.437Z,1.23
2023-02-09T23:24:13.832Z,0.57
2023-02-09T23:26:42.100Z,0.88
2023-02-09T23:29:14.987Z,0.60
2023-02-09T23:31:44.430Z,0.52
2023-02-09T23:34:15.379Z,0.52
2023-02-09T23:36:43.507Z,0.75
2023-02-09T23:39:15.940Z,0.20
2023-02-09T23:41:44.199Z,0.22
2023-02-09T23:44:13.976Z,0.70
2023-02-09T23:46:42.265Z,0.50
2023-02-09T23:49:10.480Z,0.43
2023-02-09T23:51:39.978Z,0.57
2023-02-09T23:54:08.590Z,0.77
2023-02-09T23:56:38.047Z,0.85
2023-02-09T23:59:07.783Z,0.68
